Time;durP1;ratioP1;P1;durP2;ratioP2;P2;SDS_P1;SDS_P2;PMS_P1;PMS_P2;Temp;Humidity;BMP_temperature;BMP_pressure;BME280_temperature;BME280_humidity;BME280_pressure;Samples;Min_cycle;Max_cycle;Signal;HPM_P1;HPM_P2
2024/03/30 01:34:06;;;;;;;0.50;0.40;;;11.30;99.90;;;;;;4963526;23;20266;-94
2024/03/30 01:36:36;;;;;;;0.22;0.20;;;10.90;99.90;;;;;;4075164;29;20196;-93
2024/03/30 01:38:47;;;;;;;0.82;0.25;;;10.90;99.90;;;;;;4079570;29;20180;-94
2024/03/30 01:41:19;;;;;;;0.88;0.40;;;10.70;99.90;;;;;;4089117;23;20280;-93
2024/03/30 02:04:55;;;;;;;0.32;0.20;;;10.60;99.90;;;;;;4420019;23;20238;-94
2024/03/30 02:09:38;;;;;;;;;;;;;;;;;;;;;
2024/03/30 02:12:10;;;;;;;6.28;0.40;;;10.20;99.90;;;;;;4076658;29;20212;-94
2024/03/30 02:23:21;;;;;;;0.85;0.30;;;10.60;99.90;;;;;;4076926;29;20195;-92
2024/03/30 02:25:45;;;;;;;1.30;0.40;;;10.90;99.90;;;;;;4078413;29;20184;-92
2024/03/30 02:28:03;;;;;;;0.65;0.40;;;10.80;99.90;;;;;;4063927;29;20157;-95
2024/03/30 02:30:29;;;;;;;0.75;0.32;;;10.90;99.90;;;;;;4347363;23;20201;-96
2024/03/30 02:32:48;;;;;;;1.00;0.43;;;10.90;99.90;;;;;;4092767;28;20167;-96
2024/03/30 02:35:05;;;;;;;1.08;0.30;;;11.00;99.90;;;;;;4372090;23;20665;-95
2024/03/30 02:45:42;;;;;;;;;;;;;;;;;;;;;
2024/03/30 02:48:57;;;;;;;0.85;0.30;;;11.20;99.90;;;;;;4032662;29;20190;-94
2024/03/30 02:51:54;;;;;;;1.33;0.30;;;11.40;99.90;;;;;;4016006;29;20208;-94
2024/03/30 04:09:17;;;;;;;0.63;0.20;;;11.10;99.90;;;;;;4081361;29;20232;-95
2024/03/30 04:11:38;;;;;;;1.98;0.20;;;11.10;99.90;;;;;;4080907;29;20200;-94
2024/03/30 04:13:42;;;;;;;0.45;0.45;;;11.30;99.90;;;;;;4097853;29;20186;-93
2024/03/30 04:16:44;;;;;;;0.70;0.40;;;11.40;99.90;;;;;;4112291;23;20687;-95
2024/03/30 04:19:17;;;;;;;0.60;0.30;;;11.30;99.90;;;;;;4097842;28;20193;-95
2024/03/30 04:21:19;;;;;;;0.35;0.13;;;11.10;99.90;;;;;;4081300;29;20226;-96
2024/03/30 04:24:14;;;;;;;1.85;0.50;;;11.10;99.90;;;;;;4086180;29;20212;-96
2024/03/30 04:26:29;;;;;;;0.28;0.22;;;11.10;99.90;;;;;;4082946;29;20284;-96
2024/03/30 04:31:05;;;;;;;1.05;0.40;;;11.00;99.90;;;;;;4115040;23;20266;-94
2024/03/30 04:33:09;;;;;;;0.73;0.40;;;11.20;99.90;;;;;;4098148;29;20191;-93
2024/03/30 04:35:14;;;;;;;1.65;0.63;;;11.30;99.90;;;;;;4085121;29;20224;-94
2024/03/30 04:37:15;;;;;;;1.17;0.65;;;11.10;99.90;;;;;;4068129;29;20164;-92
2024/03/30 04:39:16;;;;;;;1.92;0.60;;;11.40;99.90;;;;;;4077640;29;20184;-95
2024/03/30 04:41:29;;;;;;;2.58;0.70;;;11.80;99.90;;;;;;4065132;29;20233;-93
2024/03/30 04:43:47;;;;;;;2.50;0.80;;;11.60;99.90;;;;;;4078822;29;20247;-94
2024/03/30 04:46:01;;;;;;;1.17;0.60;;;11.20;99.90;;;;;;4081667;29;20188;-95
2024/03/30 04:48:05;;;;;;;1.10;0.57;;;11.00;99.90;;;;;;4096250;29;20175;-94
2024/03/30 04:50:14;;;;;;;10.32;1.20;;;11.00;99.90;;;;;;4097294;29;20234;-92
2024/03/30 04:52:25;;;;;;;1.48;0.70;;;11.00;99.90;;;;;;4078268;29;20184;-95
2024/03/30 04:54:31;;;;;;;1.17;0.70;;;10.40;99.90;;;;;;4082431;29;20217;-94
2024/03/30 04:56:43;;;;;;;2.17;0.57;;;10.10;99.90;;;;;;4081132;29;20176;-95
2024/03/30 04:58:44;;;;;;;1.92;0.60;;;10.00;99.90;;;;;;4082182;29;20167;-94
2024/03/30 05:01:11;;;;;;;1.38;0.80;;;10.40;99.90;;;;;;4088201;29;20188;-94
2024/03/30 05:03:25;;;;;;;1.33;0.70;;;10.90;99.90;;;;;;4096648;28;20183;-95
2024/03/30 05:05:35;;;;;;;1.35;1.00;;;11.10;99.90;;;;;;4063880;29;20652;-93
2024/03/30 05:07:55;;;;;;;1.00;0.60;;;11.40;99.90;;;;;;4077885;29;20175;-94
2024/03/30 05:10:08;;;;;;;3.90;0.70;;;11.90;99.90;;;;;;4093157;28;20206;-93
2024/03/30 05:12:18;;;;;;;1.92;1.00;;;12.10;99.90;;;;;;4080982;29;20263;-92
2024/03/30 05:14:27;;;;;;;3.67;0.88;;;12.30;99.90;;;;;;4096538;28;20214;-93
2024/03/30 05:16:45;;;;;;;2.65;1.25;;;11.80;99.90;;;;;;4097021;28;20174;-94
2024/03/30 05:18:46;;;;;;;0.93;0.60;;;11.90;99.90;;;;;;4062232;29;20189;-93
2024/03/30 05:21:18;;;;;;;2.30;0.68;;;11.40;99.90;;;;;;4065074;29;20200;-93
2024/03/30 05:23:45;;;;;;;2.17;0.82;;;11.10;99.90;;;;;;4085706;29;20215;-93
2024/03/30 05:26:03;;;;;;;3.08;0.73;;;11.00;99.90;;;;;;4080010;29;20172;-93
2024/03/30 05:28:08;;;;;;;2.83;1.05;;;10.70;99.90;;;;;;4065325;29;20176;-93
2024/03/30 05:30:18;;;;;;;1.85;1.00;;;10.60;99.90;;;;;;4077921;29;20224;-94
2024/03/30 05:32:39;;;;;;;3.15;0.77;;;10.50;99.90;;;;;;4079714;29;20176;-95
2024/03/30 05:34:50;;;;;;;2.05;0.73;;;10.50;99.90;;;;;;4063682;29;20184;-94
2024/03/30 05:36:55;;;;;;;2.63;1.05;;;10.50;99.90;;;;;;4083772;29;20176;-95
2024/03/30 05:38:56;;;;;;;1.85;0.98;;;10.50;99.90;;;;;;4061133;29;20644;-94
2024/03/30 05:41:02;;;;;;;2.03;1.10;;;10.60;99.90;;;;;;4092315;23;20318;-93
2024/03/30 05:47:41;;;;;;;1.63;0.88;;;10.50;99.90;;;;;;4075834;29;20735;-93
2024/03/30 05:51:47;;;;;;;3.70;1.50;;;10.80;99.90;;;;;;4209675;23;20310;-94
2024/03/30 05:53:48;;;;;;;2.75;1.40;;;10.80;99.90;;;;;;4090691;29;20166;-94
2024/03/30 05:55:55;;;;;;;1.45;0.80;;;10.70;99.90;;;;;;4078319;29;20249;-96
2024/03/30 05:58:18;;;;;;;2.22;1.30;;;10.60;99.90;;;;;;4064691;29;20201;-94
2024/03/30 06:00:22;;;;;;;4.82;1.20;;;11.20;99.90;;;;;;4204648;23;20183;-93
2024/03/30 06:02:45;;;;;;;1.20;0.80;;;11.60;99.90;;;;;;4077657;29;20731;-96
2024/03/30 06:05:34;;;;;;;2.75;1.27;;;11.30;99.90;;;;;;4060288;29;20169;-96
